createdAt,value
2023-04-06T00:01:36.287Z,7.30
2023-04-06T00:04:05.489Z,7.10
2023-04-06T00:06:33.922Z,6.00
2023-04-06T00:09:02.099Z,5.40
2023-04-06T00:11:29.553Z,5.20
2023-04-06T00:13:58.034Z,6.60
2023-04-06T00:16:25.472Z,4.90
2023-04-06T00:18:53.595Z,5.80
2023-04-06T00:21:21.116Z,5.60
2023-04-06T00:23:48.223Z,5.20
2023-04-06T00:26:15.453Z,5.80
2023-04-06T00:28:45.299Z,4.40
2023-04-06T00:31:12.514Z,5.20
2023-04-06T00:33:39.636Z,5.10
2023-04-06T00:36:07.565Z,5.40
2023-04-06T00:38:35.484Z,4.30
2023-04-06T00:41:04.152Z,5.30
2023-04-06T00:43:32.669Z,5.00
2023-04-06T00:45:59.718Z,6.00
2023-04-06T00:48:31.365Z,5.20
2023-04-06T00:50:59.428Z,5.30
2023-04-06T00:53:26.667Z,6.40
2023-04-06T00:55:54.258Z,5.40
2023-04-06T00:58:22.190Z,6.00
2023-04-06T01:00:53.141Z,5.30
2023-04-06T01:03:23.453Z,5.80
2023-04-06T01:05:56.099Z,6.50
2023-04-06T01:08:26.057Z,6.70
2023-04-06T01:10:56.815Z,5.40
2023-04-06T01:13:29.150Z,5.40
2023-04-06T01:16:00.232Z,6.40
2023-04-06T01:18:53.588Z,6.10
2023-04-06T01:21:24.598Z,5.70
2023-04-06T01:24:10.385Z,5.00
2023-04-06T01:26:50.584Z,5.60
2023-04-06T01:29:17.686Z,5.70
2023-04-06T01:31:45.524Z,4.80
2023-04-06T01:34:12.911Z,5.30
2023-04-06T01:36:40.467Z,5.40
2023-04-06T01:39:20.096Z,5.60
2023-04-06T01:41:47.773Z,5.30
2023-04-06T01:44:17.275Z,4.80
2023-04-06T01:46:44.984Z,5.10
2023-04-06T01:49:13.414Z,5.60
2023-04-06T01:51:42.760Z,5.80
2023-04-06T01:54:12.064Z,4.20
2023-04-06T01:56:53.194Z,4.80
2023-04-06T01:59:29.351Z,5.70
2023-04-06T02:01:57.217Z,5.10
2023-04-06T02:04:26.476Z,4.30
2023-04-06T02:07:03.815Z,6.00
2023-04-06T02:09:31.066Z,5.70
2023-04-06T02:11:58.430Z,6.10
2023-04-06T02:14:26.088Z,6.00
2023-04-06T02:16:54.222Z,5.70
2023-04-06T02:19:23.140Z,6.30
2023-04-06T02:21:57.158Z,7.80
2023-04-06T02:24:24.436Z,6.80
2023-04-06T02:26:51.845Z,11.20
2023-04-06T02:29:19.112Z,8.70
2023-04-06T02:31:47.854Z,6.50
2023-04-06T02:34:18.022Z,8.00
2023-04-06T02:36:47.776Z,7.30
2023-04-06T02:39:14.982Z,8.50
2023-04-06T02:41:42.877Z,7.60
2023-04-06T02:44:11.019Z,7.40
2023-04-06T02:46:40.757Z,12.50
2023-04-06T02:49:08.041Z,8.20
2023-04-06T02:51:36.154Z,9.30
2023-04-06T02:54:26.783Z,17.80
2023-04-06T02:56:54.209Z,10.40
2023-04-06T02:59:21.890Z,14.10
2023-04-06T03:02:00.095Z,8.00
2023-04-06T03:04:27.542Z,12.40
2023-04-06T03:06:55.695Z,10.00
2023-04-06T03:09:36.940Z,10.20
2023-04-06T03:12:04.447Z,8.80
2023-04-06T03:14:34.055Z,10.60
2023-04-06T03:17:01.763Z,8.10
2023-04-06T03:19:29.641Z,8.10
2023-04-06T03:21:58.778Z,6.80
2023-04-06T03:24:26.542Z,8.90
2023-04-06T03:26:53.891Z,7.60
2023-04-06T03:29:23.654Z,12.50
2023-04-06T03:31:51.788Z,8.90
2023-04-06T03:34:32.768Z,7.20
2023-04-06T03:37:09.362Z,8.20
2023-04-06T03:39:41.021Z,11.10
2023-04-06T03:42:09.349Z,6.50
2023-04-06T03:44:41.938Z,9.70
2023-04-06T03:47:09.498Z,11.40
2023-04-06T03:49:40.571Z,16.60
2023-04-06T03:52:09.011Z,49.00
2023-04-06T03:54:36.881Z,17.90
2023-04-06T03:57:04.962Z,15.40
2023-04-06T03:59:32.366Z,12.30
2023-04-06T04:02:00.090Z,11.20
2023-04-06T04:04:27.319Z,11.30
2023-04-06T04:06:54.671Z,15.10
2023-04-06T04:09:22.238Z,18.40
2023-04-06T04:11:51.383Z,31.10
2023-04-06T04:14:18.805Z,9.90
2023-04-06T04:16:46.046Z,13.30
2023-04-06T04:19:13.422Z,36.50
2023-04-06T04:21:47.736Z,15.00
2023-04-06T04:24:18.340Z,20.30
2023-04-06T04:26:46.711Z,17.90
2023-04-06T04:29:15.769Z,27.10
2023-04-06T04:31:44.202Z,30.80
2023-04-06T04:34:16.133Z,35.50
2023-04-06T04:36:47.627Z,15.20
2023-04-06T04:39:21.411Z,16.90
2023-04-06T04:41:54.297Z,13.20
2023-04-06T04:44:22.498Z,12.00
2023-04-06T04:46:50.135Z,8.50
2023-04-06T04:49:20.974Z,26.90
2023-04-06T04:51:53.064Z,16.30
2023-04-06T04:54:26.956Z,8.30
2023-04-06T04:56:55.013Z,25.80
2023-04-06T04:59:27.494Z,18.40
2023-04-06T05:02:02.317Z,14.90
2023-04-06T05:04:37.462Z,12.60
2023-04-06T05:07:06.462Z,29.80
2023-04-06T05:09:34.318Z,15.00
2023-04-06T05:12:05.281Z,17.50
2023-04-06T05:14:36.882Z,19.90
2023-04-06T05:17:10.381Z,16.00
2023-04-06T05:19:37.866Z,14.50
2023-04-06T05:22:05.286Z,17.00
2023-04-06T05:24:37.501Z,79.60
2023-04-06T05:27:06.701Z,54.60
2023-04-06T05:29:34.202Z,23.10
2023-04-06T05:32:06.830Z,18.80
2023-04-06T05:34:35.819Z,23.40
2023-04-06T05:37:04.006Z,20.70
2023-04-06T05:39:31.349Z,26.10
2023-04-06T05:41:58.490Z,33.30
2023-04-06T05:44:39.365Z,22.90
2023-04-06T05:47:09.277Z,15.60
2023-04-06T05:49:38.476Z,31.40
2023-04-06T05:52:09.202Z,62.60
2023-04-06T05:54:37.382Z,37.30
2023-04-06T05:57:04.439Z,52.10
2023-04-06T05:59:32.447Z,51.00
2023-04-06T06:02:01.840Z,65.30
2023-04-06T06:04:31.142Z,65.20
2023-04-06T06:06:58.676Z,28.80
2023-04-06T06:09:32.975Z,43.80
2023-04-06T06:12:14.016Z,29.70
2023-04-06T06:14:42.010Z,33.70
2023-04-06T06:17:09.189Z,20.70
2023-04-06T06:19:39.806Z,32.00
2023-04-06T06:22:08.228Z,20.10
2023-04-06T06:24:37.984Z,28.40
2023-04-06T06:27:05.548Z,40.00
2023-04-06T06:29:33.965Z,30.10
2023-04-06T06:32:01.592Z,30.40
2023-04-06T06:34:29.761Z,32.20
2023-04-06T06:36:58.555Z,25.10
2023-04-06T06:39:25.924Z,25.60
2023-04-06T06:41:55.626Z,25.50
2023-04-06T06:44:24.459Z,24.90
2023-04-06T06:46:54.848Z,18.60
2023-04-06T06:49:21.937Z,22.00
2023-04-06T06:51:49.231Z,49.70
2023-04-06T06:54:16.896Z,35.60
2023-04-06T06:56:43.953Z,27.10
2023-04-06T06:59:12.195Z,36.10
2023-04-06T07:01:40.567Z,24.60
2023-04-06T07:04:09.330Z,27.80
2023-04-06T07:06:40.030Z,27.90
2023-04-06T07:09:07.592Z,17.40
2023-04-06T07:11:34.660Z,18.10
2023-04-06T07:14:04.557Z,13.00
2023-04-06T07:16:32.236Z,15.10
2023-04-06T07:18:59.454Z,18.90
2023-04-06T07:21:27.541Z,22.20
2023-04-06T07:23:54.771Z,15.00
2023-04-06T07:26:22.069Z,11.90
2023-04-06T07:28:54.135Z,26.20
2023-04-06T07:31:23.107Z,17.60
2023-04-06T07:33:51.091Z,13.20
2023-04-06T07:36:21.068Z,25.30
2023-04-06T07:38:49.456Z,22.40
2023-04-06T07:41:17.638Z,11.60
2023-04-06T07:43:45.183Z,28.00
2023-04-06T07:46:13.293Z,10.80
2023-04-06T07:48:42.731Z,14.10
2023-04-06T07:51:14.714Z,42.00
2023-04-06T07:53:42.072Z,15.10
2023-04-06T07:56:09.151Z,9.20
2023-04-06T07:58:36.684Z,11.90
2023-04-06T08:01:04.768Z,15.40
2023-04-06T08:03:36.480Z,10.70
2023-04-06T08:06:04.683Z,16.40
2023-04-06T08:08:32.655Z,17.90
2023-04-06T08:11:01.979Z,12.90
2023-04-06T08:13:30.184Z,10.10
2023-04-06T08:16:01.143Z,15.10
2023-04-06T08:18:30.563Z,12.50
2023-04-06T08:20:57.944Z,16.60
2023-04-06T08:23:26.197Z,28.80
2023-04-06T08:25:54.780Z,13.90
2023-04-06T08:28:22.029Z,24.80
2023-04-06T08:30:49.273Z,18.10
2023-04-06T08:33:16.817Z,15.10
2023-04-06T08:35:43.931Z,25.50
2023-04-06T08:38:11.790Z,18.90
2023-04-06T08:40:39.832Z,20.10
2023-04-06T08:43:10.388Z,22.40
2023-04-06T08:45:39.207Z,18.60
2023-04-06T08:48:07.152Z,28.00
2023-04-06T08:50:36.047Z,15.60
2023-04-06T08:53:03.266Z,16.10
2023-04-06T08:55:31.127Z,27.10
2023-04-06T09:05:40.920Z,18.40
2023-04-06T09:08:10.531Z,13.70
2023-04-06T09:10:42.081Z,12.00
2023-04-06T09:13:10.564Z,20.70
2023-04-06T09:15:40.795Z,12.10
2023-04-06T09:18:10.127Z,40.40
2023-04-06T09:20:38.443Z,19.40
2023-04-06T09:23:06.735Z,14.00
2023-04-06T09:25:35.248Z,25.50
2023-04-06T09:28:05.193Z,11.20
2023-04-06T09:30:33.567Z,8.90
2023-04-06T09:33:04.478Z,9.20
2023-04-06T09:35:34.143Z,9.50
2023-04-06T09:38:12.044Z,9.20
2023-04-06T09:43:27.891Z,8.90
2023-04-06T09:45:57.117Z,7.80
2023-04-06T09:48:29.237Z,8.70
2023-04-06T09:51:00.706Z,7.20
2023-04-06T09:53:29.198Z,8.60
2023-04-06T09:55:58.932Z,9.10
2023-04-06T09:58:27.959Z,9.20
2023-04-06T10:00:56.242Z,7.60
2023-04-06T10:03:46.629Z,10.00
2023-04-06T10:06:15.593Z,12.00
2023-04-06T10:08:44.393Z,10.90
2023-04-06T10:11:12.698Z,16.20
2023-04-06T10:13:43.103Z,7.50
2023-04-06T10:16:11.518Z,10.60
2023-04-06T10:21:17.386Z,14.10
2023-04-06T10:24:02.310Z,12.70
2023-04-06T10:26:32.409Z,13.10
2023-04-06T10:29:04.372Z,16.20
2023-04-06T10:31:33.143Z,12.90
2023-04-06T10:34:02.619Z,12.10
2023-04-06T10:36:34.339Z,11.00
2023-04-06T10:39:04.460Z,6.60
2023-04-06T10:41:43.294Z,8.40
2023-04-06T10:44:26.768Z,10.10
2023-04-06T10:47:01.410Z,13.60
2023-04-06T10:49:31.222Z,9.90
2023-04-06T10:51:59.423Z,10.90
2023-04-06T10:54:28.279Z,8.60
2023-04-06T10:56:57.628Z,8.60
2023-04-06T10:59:26.836Z,9.20
2023-04-06T11:01:56.990Z,9.60
2023-04-06T11:04:26.281Z,11.00
2023-04-06T11:06:56.162Z,7.80
2023-04-06T11:09:28.320Z,11.60
2023-04-06T11:11:57.930Z,11.10
2023-04-06T11:14:27.634Z,13.80
2023-04-06T11:16:56.419Z,27.30
2023-04-06T11:19:24.774Z,12.60
2023-04-06T11:21:53.535Z,11.70
2023-04-06T11:24:23.820Z,10.90
2023-04-06T11:26:58.592Z,13.60
2023-04-06T11:29:29.045Z,19.00
2023-04-06T11:32:04.647Z,15.60
2023-04-06T11:34:40.108Z,14.40
2023-04-06T11:37:10.648Z,23.20
2023-04-06T11:39:52.003Z,35.80
2023-04-06T11:42:30.741Z,42.90
2023-04-06T11:44:59.490Z,19.60
2023-04-06T11:47:38.582Z,16.20
2023-04-06T11:50:14.330Z,15.00
2023-04-06T11:52:46.584Z,17.60
2023-04-06T11:55:19.267Z,13.10
2023-04-06T11:57:47.768Z,20.40
2023-04-06T12:00:16.765Z,16.10
2023-04-06T12:02:49.391Z,24.50
2023-04-06T12:05:17.906Z,12.40
2023-04-06T12:07:47.062Z,12.90
2023-04-06T12:10:15.226Z,11.30
2023-04-06T12:12:44.457Z,8.60
2023-04-06T12:15:16.712Z,10.70
2023-04-06T12:17:45.728Z,10.80
2023-04-06T12:20:25.353Z,9.60
2023-04-06T12:22:55.292Z,8.50
2023-04-06T12:25:23.523Z,5.40
2023-04-06T12:27:55.727Z,8.50
2023-04-06T12:30:24.137Z,6.60
2023-04-06T12:33:00.334Z,10.10
2023-04-06T12:35:28.683Z,8.90
2023-04-06T12:37:56.948Z,7.40
2023-04-06T12:40:25.381Z,6.70
2023-04-06T12:42:54.568Z,6.90
2023-04-06T12:45:27.495Z,9.60
2023-04-06T12:47:56.301Z,9.10
2023-04-06T12:50:24.638Z,6.40
2023-04-06T12:52:56.919Z,7.20
2023-04-06T12:55:26.128Z,8.50
2023-04-06T12:57:55.039Z,8.70
2023-04-06T13:00:24.272Z,8.20
2023-04-06T13:02:53.325Z,8.50
2023-04-06T13:05:21.637Z,5.80
2023-04-06T13:07:51.104Z,8.00
2023-04-06T13:10:19.975Z,10.50
2023-04-06T13:12:48.546Z,9.00
2023-04-06T13:15:21.669Z,8.00
2023-04-06T13:17:52.201Z,8.10
2023-04-06T13:20:21.657Z,7.40
2023-04-06T13:22:49.951Z,8.40
2023-04-06T13:25:18.407Z,9.20
2023-04-06T13:27:50.960Z,9.70
2023-04-06T13:30:19.442Z,10.30
2023-04-06T13:32:47.830Z,10.20
2023-04-06T13:35:16.128Z,7.20
2023-04-06T13:37:44.644Z,10.20
2023-04-06T13:40:12.994Z,9.10
2023-04-06T13:42:41.991Z,9.40
2023-04-06T13:45:14.867Z,11.60
2023-04-06T13:47:43.367Z,7.80
2023-04-06T13:50:12.054Z,9.90
2023-04-06T13:52:40.958Z,8.80
2023-04-06T13:55:09.832Z,11.30
2023-04-06T13:57:42.521Z,9.90
2023-04-06T14:00:13.785Z,8.40
2023-04-06T14:02:43.092Z,7.30
2023-04-06T14:05:11.722Z,7.70
2023-04-06T14:07:41.311Z,7.30
2023-04-06T14:10:14.867Z,7.30
2023-04-06T14:12:44.922Z,7.10
2023-04-06T14:15:13.373Z,8.90
2023-04-06T14:17:45.255Z,5.20
2023-04-06T14:20:15.895Z,7.50
2023-04-06T14:22:44.374Z,7.10
2023-04-06T14:25:13.741Z,6.50
2023-04-06T14:27:42.198Z,5.80
2023-04-06T14:30:11.521Z,8.30
2023-04-06T14:32:40.097Z,5.60
2023-04-06T14:35:08.684Z,6.70
2023-04-06T14:37:37.112Z,7.80
2023-04-06T14:40:06.500Z,8.20
2023-04-06T14:42:37.723Z,8.50
2023-04-06T14:45:06.869Z,7.60
2023-04-06T14:47:36.482Z,5.70
2023-04-06T14:50:06.762Z,5.60
2023-04-06T14:52:35.966Z,7.60
2023-04-06T14:55:05.662Z,7.20
2023-04-06T14:57:34.909Z,7.00
2023-04-06T15:00:04.510Z,7.80
2023-04-06T15:02:34.429Z,5.60
2023-04-06T15:05:03.946Z,7.80
2023-04-06T15:07:32.564Z,7.40
2023-04-06T15:10:01.107Z,8.30
2023-04-06T15:12:30.891Z,7.20
2023-04-06T15:14:59.309Z,7.80
2023-04-06T15:17:28.269Z,6.70
2023-04-06T15:19:56.765Z,11.30
2023-04-06T15:22:25.347Z,11.50
2023-04-06T15:24:53.916Z,10.00
2023-04-06T15:27:22.311Z,7.00
2023-04-06T15:29:50.942Z,7.30
2023-04-06T15:32:19.487Z,4.20
2023-04-06T15:34:48.676Z,4.60
2023-04-06T15:37:17.024Z,5.70
2023-04-06T15:39:45.583Z,6.30
2023-04-06T15:42:14.220Z,6.50
2023-04-06T15:44:42.661Z,5.90
2023-04-06T15:47:11.258Z,3.30
2023-04-06T15:49:40.414Z,4.70
2023-04-06T15:52:16.571Z,5.60
2023-04-06T15:55:08.356Z,5.90
2023-04-06T15:57:36.759Z,5.70
2023-04-06T16:00:06.341Z,4.50
2023-04-06T16:02:39.904Z,5.30
2023-04-06T16:05:08.709Z,5.00
2023-04-06T16:07:38.449Z,5.40
2023-04-06T16:10:08.767Z,6.60
2023-04-06T16:12:37.268Z,4.00
2023-04-06T16:15:07.041Z,5.20
2023-04-06T16:17:35.806Z,5.60
2023-04-06T16:20:05.196Z,5.80
2023-04-06T16:22:34.056Z,6.50
2023-04-06T16:25:03.954Z,4.60
2023-04-06T16:27:32.844Z,3.70
2023-04-06T16:32:40.983Z,6.00
2023-04-06T16:35:09.700Z,5.80
2023-04-06T16:37:38.349Z,5.70
2023-04-06T16:40:08.619Z,6.30
2023-04-06T16:42:38.153Z,4.60
2023-04-06T16:45:07.822Z,5.30
2023-04-06T16:50:09.151Z,6.00
2023-04-06T16:52:39.051Z,6.30
2023-04-06T16:55:08.404Z,5.80
2023-04-06T16:57:36.941Z,4.40
2023-04-06T17:00:07.898Z,6.10
2023-04-06T17:02:40.123Z,5.50
2023-04-06T17:05:09.456Z,4.70
2023-04-06T17:07:37.834Z,5.60
2023-04-06T17:10:07.291Z,3.90
2023-04-06T17:12:38.166Z,5.00
2023-04-06T17:15:08.195Z,4.90
2023-04-06T17:17:37.512Z,5.30
2023-04-06T17:20:07.078Z,5.20
2023-04-06T17:22:36.401Z,3.10
2023-04-06T17:25:08.320Z,3.50
2023-04-06T17:27:41.552Z,4.90
2023-04-06T17:30:10.956Z,5.50
2023-04-06T17:32:40.190Z,4.00
2023-04-06T17:35:11.375Z,3.70
2023-04-06T17:37:40.685Z,3.60
2023-04-06T17:40:10.607Z,3.90
2023-04-06T17:42:38.904Z,3.20
2023-04-06T17:45:08.485Z,2.10
2023-04-06T17:47:37.302Z,2.60
2023-04-06T17:50:06.881Z,2.50
2023-04-06T17:52:35.261Z,3.20
2023-04-06T17:55:08.474Z,4.30
2023-04-06T17:57:41.071Z,3.10
2023-04-06T18:00:12.240Z,3.30
2023-04-06T18:03:01.051Z,3.80
2023-04-06T18:05:30.018Z,3.50
2023-04-06T18:07:59.026Z,2.90
2023-04-06T18:10:28.829Z,2.30
2023-04-06T18:12:57.446Z,3.10
2023-04-06T18:15:26.406Z,3.50
2023-04-06T18:17:56.960Z,4.00
2023-04-06T18:20:26.743Z,3.30
2023-04-06T18:22:55.960Z,2.60
2023-04-06T18:25:25.551Z,3.10
2023-04-06T18:27:53.845Z,2.90
2023-04-06T18:30:22.303Z,4.20
2023-04-06T18:32:52.982Z,6.70
2023-04-06T18:35:21.433Z,4.30
2023-04-06T18:37:49.998Z,3.00
2023-04-06T18:40:38.476Z,2.90
2023-04-06T18:43:11.198Z,3.80
2023-04-06T18:45:40.061Z,3.40
2023-04-06T18:48:09.903Z,4.40
2023-04-06T18:50:38.228Z,3.00
2023-04-06T18:53:07.963Z,3.00
2023-04-06T18:55:37.533Z,4.50
2023-04-06T18:58:05.950Z,4.20
2023-04-06T19:00:34.493Z,3.70
2023-04-06T19:03:04.594Z,3.10
2023-04-06T19:05:33.399Z,1.70
2023-04-06T19:08:02.080Z,2.30
2023-04-06T19:10:34.663Z,2.30
2023-04-06T19:13:03.657Z,2.40
2023-04-06T19:15:32.029Z,2.50
2023-04-06T19:18:03.036Z,1.60
2023-04-06T19:20:34.316Z,1.80
2023-04-06T19:23:04.233Z,1.80
2023-04-06T19:25:33.741Z,2.70
2023-04-06T19:28:02.326Z,2.60
2023-04-06T19:30:30.900Z,1.60
2023-04-06T19:33:03.989Z,1.90
2023-04-06T19:35:33.093Z,1.60
2023-04-06T19:38:01.701Z,2.20
2023-04-06T19:40:30.400Z,2.20
2023-04-06T19:42:59.045Z,2.60
2023-04-06T19:45:29.576Z,1.50
2023-04-06T19:47:58.160Z,1.80
2023-04-06T19:50:27.556Z,1.80
2023-04-06T19:52:56.547Z,4.30
2023-04-06T19:55:25.158Z,3.90
2023-04-06T19:57:54.124Z,2.20
2023-04-06T20:00:23.731Z,2.30
2023-04-06T20:02:52.502Z,2.40
2023-04-06T20:05:21.215Z,3.80
2023-04-06T20:07:50.340Z,8.00
2023-04-06T20:10:19.700Z,7.90
2023-04-06T20:12:50.665Z,6.50
2023-04-06T20:15:19.256Z,6.70
2023-04-06T20:17:53.564Z,5.10
2023-04-06T20:20:23.463Z,4.20
2023-04-06T20:22:52.078Z,4.20
2023-04-06T20:25:26.888Z,3.90
2023-04-06T20:27:55.564Z,2.70
2023-04-06T20:30:24.033Z,3.10
2023-04-06T20:32:55.966Z,3.40
2023-04-06T20:35:24.618Z,3.00
2023-04-06T20:37:53.408Z,3.50
2023-04-06T20:40:22.465Z,3.30
2023-04-06T20:42:50.952Z,2.60
2023-04-06T20:45:21.710Z,3.70
2023-04-06T20:47:54.612Z,6.60
2023-04-06T20:50:24.596Z,4.30
2023-04-06T20:52:53.072Z,3.40
2023-04-06T20:55:21.647Z,3.40
2023-04-06T20:57:50.030Z,2.70
2023-04-06T21:00:19.448Z,3.00
2023-04-06T21:02:49.792Z,3.20
2023-04-06T21:05:20.936Z,3.30
2023-04-06T21:07:49.286Z,3.40
2023-04-06T21:10:18.370Z,3.80
2023-04-06T21:12:46.955Z,3.70
2023-04-06T21:15:16.050Z,2.10
2023-04-06T21:17:46.914Z,2.70
2023-04-06T21:20:15.806Z,3.40
2023-04-06T21:22:44.051Z,4.50
2023-04-06T21:25:13.814Z,4.00
2023-04-06T21:27:42.498Z,3.60
2023-04-06T21:30:12.065Z,3.60
2023-04-06T21:32:40.950Z,2.60
2023-04-06T21:35:10.149Z,3.30
2023-04-06T21:37:38.416Z,3.60
2023-04-06T21:40:07.950Z,3.70
2023-04-06T21:42:37.016Z,3.30
2023-04-06T21:45:06.228Z,3.20
2023-04-06T21:47:35.747Z,3.40
2023-04-06T21:50:04.399Z,2.20
2023-04-06T21:52:32.925Z,3.60
2023-04-06T21:55:01.570Z,3.10
2023-04-06T21:57:30.455Z,2.90
2023-04-06T21:59:58.863Z,3.40
2023-04-06T22:02:29.070Z,2.70
2023-04-06T22:04:59.378Z,2.70
2023-04-06T22:07:28.496Z,2.20
2023-04-06T22:09:57.054Z,2.40
2023-04-06T22:12:27.585Z,2.30
2023-04-06T22:14:57.152Z,1.90
2023-04-06T22:17:25.709Z,2.50
2023-04-06T22:19:55.078Z,2.20
2023-04-06T22:22:24.693Z,1.30
2023-04-06T22:24:52.960Z,1.90
2023-04-06T22:27:21.855Z,1.50
2023-04-06T22:29:50.439Z,1.70
2023-04-06T22:32:25.456Z,1.80
2023-04-06T22:34:54.195Z,1.40
2023-04-06T22:37:22.765Z,1.10
2023-04-06T22:39:52.040Z,1.70
2023-04-06T22:42:20.650Z,1.40
2023-04-06T22:44:50.846Z,1.20
2023-04-06T22:47:19.460Z,2.70
2023-04-06T22:49:47.926Z,3.30
2023-04-06T22:52:16.502Z,2.20
2023-04-06T22:54:45.020Z,2.00
2023-04-06T22:57:14.175Z,2.80
2023-04-06T22:59:42.542Z,4.30
2023-04-06T23:02:11.537Z,3.00
2023-04-06T23:04:40.579Z,2.00
2023-04-06T23:07:09.121Z,2.20
2023-04-06T23:09:37.607Z,1.90
2023-04-06T23:12:08.642Z,1.90
2023-04-06T23:14:37.925Z,2.20
2023-04-06T23:17:06.411Z,2.20
2023-04-06T23:19:36.028Z,2.50
2023-04-06T23:22:04.508Z,2.00
2023-04-06T23:24:33.958Z,2.60
2023-04-06T23:27:02.492Z,1.30
2023-04-06T23:29:33.585Z,2.30
2023-04-06T23:32:02.369Z,1.90
2023-04-06T23:34:31.047Z,2.20
2023-04-06T23:37:03.347Z,2.00
2023-04-06T23:39:32.316Z,2.10
2023-04-06T23:42:02.287Z,2.40
2023-04-06T23:44:31.175Z,2.10
2023-04-06T23:46:59.371Z,1.40
2023-04-06T23:49:28.036Z,1.90
2023-04-06T23:51:56.556Z,2.10
2023-04-06T23:54:25.035Z,1.80
2023-04-06T23:56:53.688Z,2.00
2023-04-06T23:59:22.637Z,1.80
